Time;durP1;ratioP1;P1;durP2;ratioP2;P2;SDS_P1;SDS_P2;PMS_P1;PMS_P2;Temp;Humidity;BMP_temperature;BMP_pressure;BME280_temperature;BME280_humidity;BME280_pressure;Samples;Min_cycle;Max_cycle;Signal;HPM_P1;HPM_P2
2022/07/16 00:02:40;;;;;;;1.70;1.60;;;;;;;29.76;27.13;99215.90;1917457;73;28063;-56
2022/07/16 00:05:29;;;;;;;1.30;1.30;;;;;;;29.73;27.15;99220.07;1914138;73;28125;-55
2022/07/16 00:08:17;;;;;;;1.30;1.30;;;;;;;29.70;27.16;99215.09;1913474;73;28019;-54
2022/07/16 00:11:06;;;;;;;1.90;1.40;;;;;;;29.72;27.10;99220.34;1913269;73;28216;-57
2022/07/16 00:13:55;;;;;;;1.80;1.40;;;;;;;29.67;27.12;99215.67;1908384;73;28176;-57
2022/07/16 00:16:43;;;;;;;1.30;1.30;;;;;;;29.66;27.06;99222.34;1913183;73;28159;-55
2022/07/16 00:19:32;;;;;;;1.67;1.57;;;;;;;29.59;27.26;99218.23;1908572;74;28133;-55
2022/07/16 00:22:20;;;;;;;3.20;1.60;;;;;;;29.59;27.33;99219.06;1908662;74;28181;-56
2022/07/16 00:25:09;;;;;;;1.60;1.50;;;;;;;29.51;27.50;99211.35;1908410;74;28225;-52
2022/07/16 00:27:57;;;;;;;2.37;1.60;;;;;;;29.53;27.76;99219.36;1913904;73;28098;-53
2022/07/16 00:30:46;;;;;;;2.52;1.60;;;;;;;29.52;27.48;99218.56;1919785;73;28143;-55
2022/07/16 00:33:34;;;;;;;1.92;1.62;;;;;;;29.53;27.47;99219.36;1912520;73;28142;-55
2022/07/16 00:36:23;;;;;;;1.60;1.50;;;;;;;29.50;27.60;99222.14;1908361;73;28117;-54
2022/07/16 00:39:12;;;;;;;1.70;1.60;;;;;;;29.51;27.43;99218.27;1908626;74;28179;-56
2022/07/16 00:42:01;;;;;;;1.35;1.30;;;;;;;29.54;27.35;99215.48;1910626;73;30685;-55
2022/07/16 00:44:50;;;;;;;1.20;1.20;;;;;;;29.51;27.39;99220.20;1923742;73;28029;-54
2022/07/16 00:47:38;;;;;;;1.50;1.40;;;;;;;29.49;27.33;99218.28;1927014;73;28132;-52
2022/07/16 00:50:26;;;;;;;1.60;1.50;;;;;;;29.44;27.46;99213.61;1933643;73;28097;-55
2022/07/16 00:53:15;;;;;;;1.37;1.37;;;;;;;29.39;27.40;99214.47;1918722;73;28164;-55
2022/07/16 00:56:06;;;;;;;1.62;1.50;;;;;;;29.39;27.52;99215.86;1913340;73;28159;-55
2022/07/16 00:58:56;;;;;;;1.60;1.50;;;;;;;29.31;27.62;99219.22;1914565;73;31048;-57
2022/07/16 01:01:45;;;;;;;2.50;1.62;;;;;;;29.27;27.67;99221.45;1908413;74;28701;-56
2022/07/16 01:04:35;;;;;;;2.17;1.57;;;;;;;29.26;27.72;99223.97;1908403;74;28258;-57
2022/07/16 01:07:24;;;;;;;2.62;1.40;;;;;;;29.25;27.70;99222.30;1908451;74;28047;-57
2022/07/16 01:10:14;;;;;;;1.57;1.47;;;;;;;29.24;27.79;99225.62;1930896;73;28198;-57
2022/07/16 01:13:03;;;;;;;1.80;1.70;;;;;;;29.31;27.77;99221.98;1923664;73;28099;-57
2022/07/16 01:15:51;;;;;;;1.60;1.50;;;;;;;29.46;27.69;99219.69;1908515;74;28208;-55
2022/07/16 01:18:41;;;;;;;1.50;1.40;;;;;;;29.62;27.67;99225.39;1920676;73;28156;-54
2022/07/16 01:21:30;;;;;;;1.52;1.42;;;;;;;29.76;27.55;99228.36;1913363;73;28190;-54
2022/07/16 01:24:18;;;;;;;1.70;1.60;;;;;;;29.86;27.44;99227.74;1908541;74;28174;-56
2022/07/16 01:27:07;;;;;;;1.60;1.50;;;;;;;29.93;27.33;99226.02;1895584;73;28136;-56
2022/07/16 01:29:55;;;;;;;1.35;1.32;;;;;;;30.03;27.26;99226.78;1922345;73;28025;-54
2022/07/16 01:32:43;;;;;;;2.67;1.65;;;;;;;30.11;27.23;99225.30;1893630;73;28101;-56
2022/07/16 01:35:31;;;;;;;1.95;1.37;;;;;;;30.15;27.15;99222.79;1896400;75;28048;-57
2022/07/16 01:38:20;;;;;;;1.47;1.37;;;;;;;30.17;27.11;99224.16;1896277;74;28010;-58
2022/07/16 01:41:09;;;;;;;1.53;1.47;;;;;;;30.20;27.10;99222.16;1903607;74;28103;-54
2022/07/16 01:43:57;;;;;;;2.30;1.50;;;;;;;30.21;27.04;99225.22;1922708;74;28115;-58
2022/07/16 01:46:46;;;;;;;1.30;1.30;;;;;;;30.22;27.00;99226.05;1892529;75;28204;-57
2022/07/16 01:49:36;;;;;;;1.60;1.50;;;;;;;30.23;26.99;99224.91;1892335;74;28141;-56
2022/07/16 01:52:25;;;;;;;1.60;1.50;;;;;;;30.21;27.03;99227.98;1914423;74;28117;-56
2022/07/16 01:55:13;;;;;;;1.50;1.40;;;;;;;30.21;27.04;99234.08;1896473;75;31029;-57
2022/07/16 01:58:03;;;;;;;2.00;1.57;;;;;;;30.22;27.08;99230.20;1895898;75;28063;-56
2022/07/16 02:00:52;;;;;;;1.67;1.57;;;;;;;30.27;27.07;99230.16;1895102;75;28030;-57
2022/07/16 02:03:40;;;;;;;1.52;1.50;;;;;;;30.30;27.09;99225.40;1915655;74;28181;-55
2022/07/16 02:06:28;;;;;;;1.60;1.50;;;;;;;30.30;27.09;99230.39;1892733;75;28297;-58
2022/07/16 02:09:17;;;;;;;1.30;1.30;;;;;;;30.34;27.04;99241.19;1895104;75;28119;-54
2022/07/16 02:12:06;;;;;;;1.67;1.60;;;;;;;30.32;26.94;99244.78;1908016;74;28064;-57
2022/07/16 02:14:54;;;;;;;1.55;1.40;;;;;;;30.33;27.04;99237.33;1905213;73;28139;-57
2022/07/16 02:17:42;;;;;;;1.47;1.40;;;;;;;30.38;26.93;99240.89;1933989;73;28485;-57
2022/07/16 02:20:31;;;;;;;1.35;1.30;;;;;;;30.40;26.87;99242.80;1910826;74;28685;-53
2022/07/16 02:23:19;;;;;;;1.60;1.50;;;;;;;30.44;26.86;99245.80;1896246;75;28119;-57
2022/07/16 02:26:08;;;;;;;1.47;1.37;;;;;;;30.46;26.87;99253.27;1897819;74;28034;-56
2022/07/16 02:28:56;;;;;;;1.65;1.55;;;;;;;30.49;26.87;99252.69;1910776;73;28021;-56
2022/07/16 02:31:47;;;;;;;1.70;1.60;;;;;;;30.52;26.78;99254.88;1920798;73;28196;-57
2022/07/16 02:34:36;;;;;;;1.40;1.40;;;;;;;30.54;26.84;99249.31;1908248;74;28132;-56
2022/07/16 02:37:24;;;;;;;1.75;1.30;;;;;;;30.56;26.74;99249.02;1908409;74;28561;-57
2022/07/16 02:40:13;;;;;;;1.55;1.45;;;;;;;30.50;26.75;99243.27;1908424;74;28089;-56
2022/07/16 02:43:04;;;;;;;1.70;1.40;;;;;;;30.50;26.80;99252.97;1921080;73;28031;-56
2022/07/16 02:45:53;;;;;;;1.30;1.30;;;;;;;30.50;26.80;99251.58;1941993;73;28146;-57
2022/07/16 02:48:41;;;;;;;1.60;1.50;;;;;;;30.49;26.80;99252.14;1917949;73;28086;-56
2022/07/16 02:51:30;;;;;;;2.73;1.60;;;;;;;30.49;26.88;99251.30;1908391;74;28255;-56
2022/07/16 02:54:18;;;;;;;1.37;1.37;;;;;;;30.51;26.83;99250.44;1942504;73;28088;-58
2022/07/16 02:57:06;;;;;;;1.47;1.47;;;;;;;30.54;26.83;99252.09;1913338;73;28084;-57
2022/07/16 02:59:55;;;;;;;1.50;1.40;;;;;;;30.51;26.78;99255.98;1908409;74;28133;-58
2022/07/16 03:02:44;;;;;;;1.72;1.50;;;;;;;30.49;26.83;99251.30;1908421;74;28177;-57
2022/07/16 03:05:32;;;;;;;1.52;1.40;;;;;;;30.42;26.89;99250.27;1919832;73;28099;-52
2022/07/16 03:08:20;;;;;;;1.40;1.40;;;;;;;30.36;27.02;99247.84;1914032;73;28146;-54
2022/07/16 03:11:09;;;;;;;1.70;1.60;;;;;;;30.34;27.11;99244.54;1908500;74;28595;-56
2022/07/16 03:13:58;;;;;;;1.67;1.40;;;;;;;30.33;27.11;99246.48;1908379;74;28213;-55
2022/07/16 03:16:46;;;;;;;1.43;1.37;;;;;;;30.36;27.08;99244.52;1916658;73;28075;-53
2022/07/16 03:19:34;;;;;;;1.72;1.30;;;;;;;30.37;27.11;99248.92;1917195;73;28209;-57
2022/07/16 03:22:23;;;;;;;1.47;1.40;;;;;;;30.39;27.11;99250.84;1908458;74;28162;-56
2022/07/16 03:25:12;;;;;;;2.10;1.43;;;;;;;30.44;27.08;99251.34;1908500;74;28104;-56
2022/07/16 03:28:00;;;;;;;1.80;1.47;;;;;;;30.42;27.08;99249.43;1928103;73;28202;-55
2022/07/16 03:30:49;;;;;;;1.60;1.50;;;;;;;30.44;27.10;99243.03;1907628;73;28152;-57
2022/07/16 03:33:37;;;;;;;1.47;1.45;;;;;;;30.45;27.08;99248.86;1902347;73;28176;-56
2022/07/16 03:36:26;;;;;;;1.62;1.52;;;;;;;30.48;27.04;99251.86;1913217;73;28101;-56
2022/07/16 03:39:14;;;;;;;1.70;1.40;;;;;;;30.48;27.11;99247.70;1910164;73;28099;-55
2022/07/16 03:42:03;;;;;;;1.60;1.50;;;;;;;30.50;27.18;99246.03;1923385;73;28038;-55
2022/07/16 03:44:51;;;;;;;1.40;1.40;;;;;;;30.54;27.18;99254.03;1920317;73;28194;-54
2022/07/16 03:47:40;;;;;;;1.37;1.37;;;;;;;30.54;27.18;99254.03;1904014;75;28102;-55
2022/07/16 03:50:28;;;;;;;1.52;1.42;;;;;;;30.56;27.12;99255.39;1903989;75;28145;-57
2022/07/16 03:53:16;;;;;;;1.50;1.40;;;;;;;30.58;27.07;99257.86;1903829;75;28098;-56
2022/07/16 03:56:06;;;;;;;1.50;1.40;;;;;;;30.58;27.02;99260.08;1903002;75;28071;-55
2022/07/16 03:58:55;;;;;;;1.57;1.52;;;;;;;30.56;27.03;99259.55;1925143;73;28195;-56
2022/07/16 04:01:44;;;;;;;1.47;1.40;;;;;;;30.55;27.01;99259.85;1902269;75;28150;-56
2022/07/16 04:04:32;;;;;;;2.33;1.42;;;;;;;30.51;27.11;99264.30;1903161;75;28140;-55
2022/07/16 04:07:20;;;;;;;1.67;1.57;;;;;;;30.47;27.22;99267.41;1938038;73;30051;-56
2022/07/16 04:10:09;;;;;;;1.60;1.50;;;;;;;30.45;27.23;99266.88;1907567;73;28069;-54
2022/07/16 04:12:57;;;;;;;1.50;1.40;;;;;;;30.42;27.31;99267.45;1902803;75;28225;-54
2022/07/16 04:15:46;;;;;;;1.33;1.33;;;;;;;30.43;27.36;99267.73;1905173;75;28167;-56
2022/07/16 04:18:36;;;;;;;1.40;1.40;;;;;;;30.43;27.36;99272.72;1901873;75;28559;-56
2022/07/16 04:21:25;;;;;;;1.50;1.40;;;;;;;30.40;27.41;99277.45;1862365;75;28166;-56
2022/07/16 04:24:13;;;;;;;2.25;1.40;;;;;;;30.40;27.44;99277.45;1903845;75;28072;-56
2022/07/16 04:27:02;;;;;;;1.50;1.50;;;;;;;30.40;27.45;99281.61;1903370;75;28065;-58
2022/07/16 04:29:50;;;;;;;1.47;1.37;;;;;;;30.38;27.52;99281.08;1925762;73;28177;-58
2022/07/16 04:32:40;;;;;;;1.40;1.40;;;;;;;30.37;27.51;99278.03;1902175;73;28107;-57
2022/07/16 04:35:28;;;;;;;1.52;1.42;;;;;;;30.39;27.54;99279.11;1901911;75;28184;-56
2022/07/16 04:38:18;;;;;;;1.55;1.45;;;;;;;30.40;27.54;99284.37;1903221;75;28018;-57
2022/07/16 04:41:06;;;;;;;1.52;1.40;;;;;;;30.40;27.54;99284.37;1925046;73;28148;-54
2022/07/16 04:43:55;;;;;;;1.60;1.50;;;;;;;30.42;27.57;99282.69;1903828;75;28125;-56
2022/07/16 04:46:43;;;;;;;2.20;1.50;;;;;;;30.44;27.56;99286.00;1903695;75;28087;-56
2022/07/16 04:49:31;;;;;;;2.00;1.50;;;;;;;30.45;27.58;99284.89;1902891;75;28203;-56
2022/07/16 04:52:20;;;;;;;1.40;1.40;;;;;;;30.44;27.59;99287.38;1931146;73;28841;-56
2022/07/16 04:55:09;;;;;;;1.60;1.50;;;;;;;30.46;27.62;99288.75;1913098;73;28200;-54
2022/07/16 04:57:58;;;;;;;1.50;1.40;;;;;;;30.45;27.62;99284.34;1918091;73;28063;-56
2022/07/16 05:00:46;;;;;;;1.50;1.40;;;;;;;30.46;27.65;99287.91;1904614;73;28126;-56
2022/07/16 05:03:34;;;;;;;1.70;1.60;;;;;;;30.46;27.67;99289.30;1903849;75;28210;-54
2022/07/16 05:06:23;;;;;;;1.52;1.42;;;;;;;30.47;27.71;99286.25;1903735;75;28089;-55
2022/07/16 05:09:11;;;;;;;1.42;1.35;;;;;;;30.47;27.79;99291.80;1912389;73;28064;-57
2022/07/16 05:12:00;;;;;;;1.60;1.50;;;;;;;30.48;27.90;99290.66;1904245;73;28170;-53
2022/07/16 05:14:48;;;;;;;1.60;1.50;;;;;;;30.50;27.97;99296.73;1903699;75;28091;-55
2022/07/16 05:17:37;;;;;;;2.35;1.45;;;;;;;30.52;27.99;99297.86;1903666;75;28144;-57
2022/07/16 05:20:26;;;;;;;1.65;1.55;;;;;;;30.54;28.00;99299.77;1903626;75;28167;-58
2022/07/16 05:23:14;;;;;;;1.70;1.60;;;;;;;30.55;28.00;99304.21;1924416;73;28199;-55
2022/07/16 05:26:03;;;;;;;1.65;1.42;;;;;;;30.57;27.95;99303.36;1901804;75;28239;-54
2022/07/16 05:28:51;;;;;;;1.40;1.40;;;;;;;30.56;27.90;99302.52;1903413;75;28024;-56
2022/07/16 05:31:40;;;;;;;1.60;1.50;;;;;;;30.56;27.89;99304.46;1904363;73;28603;-57
2022/07/16 05:34:28;;;;;;;1.62;1.52;;;;;;;30.57;27.88;99308.90;1907361;73;28025;-56
2022/07/16 05:37:16;;;;;;;1.70;1.60;;;;;;;30.58;27.99;99309.15;1913307;73;28211;-57
2022/07/16 05:40:06;;;;;;;2.27;1.40;;;;;;;30.58;28.02;99307.21;1903187;75;28508;-56
2022/07/16 05:42:55;;;;;;;1.73;1.63;;;;;;;30.57;27.93;99311.09;1924264;73;28177;-53
2022/07/16 05:45:43;;;;;;;1.60;1.50;;;;;;;30.56;27.90;99310.00;1902230;75;28129;-55
2022/07/16 05:48:31;;;;;;;1.57;1.45;;;;;;;30.57;27.99;99311.67;1902949;75;28110;-56
2022/07/16 05:51:20;;;;;;;1.45;1.40;;;;;;;30.57;27.91;99307.52;1935171;73;28074;-55
2022/07/16 05:54:08;;;;;;;1.60;1.50;;;;;;;30.56;27.85;99311.39;1904817;74;28060;-55
2022/07/16 05:56:56;;;;;;;1.60;1.30;;;;;;;30.55;27.88;99311.14;1905236;73;28135;-54
2022/07/16 05:59:44;;;;;;;2.15;1.62;;;;;;;30.54;27.95;99309.47;1916213;73;32076;-55
2022/07/16 06:02:33;;;;;;;1.40;1.30;;;;;;;30.55;27.96;99315.30;1902102;75;28250;-56
2022/07/16 06:05:22;;;;;;;1.60;1.50;;;;;;;30.54;27.99;99321.95;1861011;76;28189;-55
2022/07/16 06:08:11;;;;;;;1.90;1.40;;;;;;;30.52;28.11;99326.96;1854064;76;28197;-54
2022/07/16 06:11:00;;;;;;;1.77;1.67;;;;;;;30.50;28.13;99326.43;1901851;75;28102;-56
2022/07/16 06:13:48;;;;;;;1.50;1.50;;;;;;;30.46;28.17;99321.17;1910806;73;28138;-56
2022/07/16 06:16:36;;;;;;;2.00;1.50;;;;;;;30.28;28.29;99326.85;1904822;75;28213;-55
2022/07/16 06:19:24;;;;;;;1.70;1.60;;;;;;;30.18;28.41;99330.28;1902941;75;28219;-56
2022/07/16 06:22:12;;;;;;;1.90;1.70;;;;;;;30.08;28.50;99331.98;1903375;75;28079;-56
2022/07/16 06:25:01;;;;;;;3.40;1.70;;;;;;;29.83;28.68;99333.55;1901288;73;28144;-57
2022/07/16 06:27:50;;;;;;;1.70;1.60;;;;;;;29.66;28.99;99332.24;1923795;73;28029;-58
2022/07/16 06:30:38;;;;;;;1.60;1.50;;;;;;;29.58;28.99;99341.97;1904126;74;28582;-52
2022/07/16 06:33:26;;;;;;;1.70;1.60;;;;;;;29.28;29.36;99337.95;1907754;73;28145;-53
2022/07/16 06:36:14;;;;;;;1.70;1.60;;;;;;;29.27;29.44;99340.42;1908224;74;28168;-53
2022/07/16 06:39:04;;;;;;;1.67;1.57;;;;;;;29.07;29.75;99337.71;1908343;74;28069;-55
2022/07/16 06:41:52;;;;;;;1.87;1.70;;;;;;;29.08;29.86;99340.77;1908127;74;28142;-52
2022/07/16 06:44:41;;;;;;;1.62;1.52;;;;;;;29.08;29.87;99339.38;1908994;74;28172;-50
2022/07/16 06:47:29;;;;;;;1.70;1.60;;;;;;;28.90;30.18;99339.95;1869207;75;28270;-48
2022/07/16 06:50:17;;;;;;;3.55;1.55;;;;;;;28.89;30.19;99335.55;1844334;76;28281;-51
2022/07/16 06:53:06;;;;;;;2.05;1.85;;;;;;;28.87;30.30;99335.81;1836997;77;28619;-54
2022/07/16 06:55:54;;;;;;;1.90;1.60;;;;;;;28.91;30.14;99337.48;1847216;76;28247;-55
2022/07/16 06:58:42;;;;;;;4.47;1.90;;;;;;;28.85;30.12;99341.34;1884795;75;28229;-53
2022/07/16 07:01:31;;;;;;;2.08;1.98;;;;;;;28.79;30.15;99340.55;1877804;75;28244;-52
2022/07/16 07:04:19;;;;;;;1.90;1.80;;;;;;;28.70;30.24;99338.08;1925915;73;28073;-54
2022/07/16 07:07:07;;;;;;;1.80;1.70;;;;;;;28.75;30.19;99340.84;1917108;73;28231;-57
2022/07/16 07:09:56;;;;;;;2.53;2.20;;;;;;;28.75;30.29;99345.78;1909800;74;28125;-53
2022/07/16 07:12:45;;;;;;;2.67;1.98;;;;;;;28.78;30.28;99339.45;1857906;76;28272;-53
2022/07/16 07:15:33;;;;;;;2.40;2.00;;;;;;;28.65;30.54;99344.98;1851464;76;28335;-54
2022/07/16 07:18:22;;;;;;;1.92;1.70;;;;;;;28.52;30.56;99342.77;1881558;75;28273;-53
2022/07/16 07:21:10;;;;;;;2.00;1.77;;;;;;;28.42;30.67;99353.27;1867098;76;28269;-52
2022/07/16 07:23:58;;;;;;;1.77;1.67;;;;;;;28.28;30.90;99352.16;1854112;76;28331;-53
2022/07/16 07:26:46;;;;;;;1.70;1.60;;;;;;;28.19;30.99;99353.81;1841604;76;28378;-50
2022/07/16 07:29:34;;;;;;;1.80;1.70;;;;;;;28.15;31.17;99347.16;1863163;76;28265;-57
2022/07/16 07:32:23;;;;;;;2.10;2.00;;;;;;;28.02;31.22;99338.87;1858997;76;28237;-54
2022/07/16 07:35:11;;;;;;;1.90;1.80;;;;;;;28.06;31.25;99350.19;1892214;75;28290;-50
2022/07/16 07:38:00;;;;;;;1.60;1.55;;;;;;;27.91;31.25;99346.00;1891064;74;28338;-55
2022/07/16 07:40:48;;;;;;;1.82;1.72;;;;;;;27.84;31.37;99356.48;1917869;73;28078;-52
2022/07/16 07:43:37;;;;;;;1.98;1.70;;;;;;;27.76;31.66;99349.55;1896065;75;28064;-52
2022/07/16 07:46:25;;;;;;;1.70;1.60;;;;;;;27.78;31.63;99352.03;1892400;75;28571;-53
2022/07/16 07:49:14;;;;;;;1.60;1.50;;;;;;;27.80;31.60;99345.68;1900498;74;28104;-53
2022/07/16 07:52:02;;;;;;;2.20;1.80;;;;;;;27.90;31.59;99344.33;1892896;75;28107;-52
2022/07/16 07:54:51;;;;;;;1.77;1.67;;;;;;;27.93;31.37;99346.02;1895772;75;28040;-54
2022/07/16 07:57:39;;;;;;;2.08;1.98;;;;;;;28.14;31.04;99339.99;1893865;74;28215;-54
2022/07/16 08:00:29;;;;;;;1.70;1.60;;;;;;;28.20;31.00;99336.66;1895853;73;28207;-53
2022/07/16 08:03:17;;;;;;;1.90;1.80;;;;;;;28.10;31.26;99329.20;1901258;73;28083;-52
2022/07/16 08:06:05;;;;;;;2.20;1.60;;;;;;;28.15;31.35;99334.73;1895438;75;28039;-53
2022/07/16 08:08:53;;;;;;;1.62;1.52;;;;;;;28.20;31.38;99337.50;1894531;75;27917;-54
2022/07/16 08:11:42;;;;;;;1.85;1.75;;;;;;;28.23;31.44;99330.59;1908401;74;28105;-52
2022/07/16 08:14:30;;;;;;;1.92;1.82;;;;;;;28.30;31.39;99333.37;1899531;74;28791;-53
2022/07/16 08:17:19;;;;;;;1.80;1.70;;;;;;;28.36;31.45;99327.27;1895132;75;28126;-55
2022/07/16 08:20:09;;;;;;;1.77;1.67;;;;;;;28.28;31.71;99330.60;1915050;74;28357;-55
2022/07/16 08:22:57;;;;;;;1.75;1.65;;;;;;;28.29;31.80;99323.41;1892153;75;28252;-53
2022/07/16 08:25:45;;;;;;;1.80;1.70;;;;;;;28.31;31.67;99319.01;1892164;75;28277;-56
2022/07/16 08:28:34;;;;;;;1.70;1.60;;;;;;;28.44;31.57;99323.42;1894937;75;28157;-53
2022/07/16 08:31:22;;;;;;;1.50;1.50;;;;;;;28.39;31.44;99324.80;1915538;74;28191;-53
2022/07/16 08:34:11;;;;;;;1.77;1.67;;;;;;;28.47;31.25;99321.46;1908538;73;28059;-52
2022/07/16 08:37:00;;;;;;;1.90;1.70;;;;;;;28.50;31.13;99322.30;1892208;75;28256;-53
2022/07/16 08:39:48;;;;;;;2.10;1.50;;;;;;;28.57;31.01;99330.30;1892129;75;28144;-55
2022/07/16 08:42:37;;;;;;;2.95;1.77;;;;;;;28.56;31.04;99329.50;1892186;75;28246;-54
2022/07/16 08:45:26;;;;;;;1.65;1.55;;;;;;;28.55;31.19;99322.30;1895656;75;28197;-55
2022/07/16 08:48:14;;;;;;;1.80;1.65;;;;;;;28.61;31.03;99324.55;1891677;75;28087;-50
2022/07/16 08:51:06;;;;;;;2.10;1.75;;;;;;;28.56;31.00;99321.75;1893342;75;28108;-53
2022/07/16 08:53:54;;;;;;;1.70;1.60;;;;;;;28.59;30.99;99320.66;1894177;75;28036;-51
2022/07/16 08:56:46;;;;;;;1.80;1.70;;;;;;;28.47;31.37;99317.31;1894525;75;28165;-50
2022/07/16 08:59:36;;;;;;;1.70;1.60;;;;;;;28.49;31.56;99313.75;1905500;74;28037;-53
2022/07/16 09:02:24;;;;;;;1.70;1.60;;;;;;;28.54;31.72;99311.53;1892771;73;28226;-54
2022/07/16 09:05:13;;;;;;;2.35;1.70;;;;;;;28.67;31.64;99309.05;1923327;73;28131;-54
2022/07/16 09:08:04;;;;;;;1.57;1.50;;;;;;;28.63;31.81;99313.48;1892220;75;28157;-55
2022/07/16 09:10:52;;;;;;;1.80;1.70;;;;;;;28.53;31.92;99317.61;1907710;74;28157;-53
2022/07/16 09:13:43;;;;;;;1.70;1.60;;;;;;;28.57;31.89;99314.55;1897830;74;28118;-51
2022/07/16 09:16:35;;;;;;;1.60;1.50;;;;;;;28.55;31.94;99314.55;1897277;75;28298;-53
2022/07/16 09:19:27;;;;;;;1.73;1.63;;;;;;;28.60;31.88;99303.53;1896311;75;28032;-54
2022/07/16 09:22:16;;;;;;;1.72;1.62;;;;;;;28.70;31.87;99302.97;1908855;74;28117;-54
2022/07/16 09:25:06;;;;;;;1.90;1.80;;;;;;;28.64;32.05;99295.78;1894621;74;28113;-51
2022/07/16 09:28:01;;;;;;;1.67;1.67;;;;;;;28.65;32.08;99303.52;1896046;73;28245;-54
2022/07/16 09:30:51;;;;;;;2.20;2.00;;;;;;;28.80;31.67;99294.38;1893942;74;28169;-55
2022/07/16 09:33:39;;;;;;;1.95;1.85;;;;;;;28.81;31.59;99291.87;1894279;73;28256;-54
2022/07/16 09:36:28;;;;;;;1.90;1.80;;;;;;;28.88;31.54;99293.78;1894358;73;28039;-54
2022/07/16 09:39:18;;;;;;;1.82;1.72;;;;;;;28.82;31.51;99284.70;1893236;75;28268;-50
2022/07/16 09:42:07;;;;;;;1.50;1.40;;;;;;;28.87;31.59;99286.04;1913746;74;28079;-51
2022/07/16 09:44:56;;;;;;;1.87;1.77;;;;;;;28.84;31.93;99283.02;1910530;74;28121;-54
2022/07/16 09:47:44;;;;;;;1.77;1.67;;;;;;;28.95;31.85;99285.47;1904922;74;28332;-53
2022/07/16 09:50:37;;;;;;;1.70;1.60;;;;;;;29.09;31.49;99292.61;1849688;77;28229;-56
2022/07/16 09:53:27;;;;;;;2.00;1.90;;;;;;;29.08;31.50;99293.16;1833289;77;28315;-55
2022/07/16 09:56:18;;;;;;;1.70;1.60;;;;;;;29.05;31.72;99281.84;1842935;77;28288;-55
2022/07/16 09:59:06;;;;;;;1.98;1.77;;;;;;;29.19;31.50;99278.78;1862411;75;28157;-52
2022/07/16 10:01:56;;;;;;;1.80;1.70;;;;;;;29.16;31.61;99277.92;1863818;75;28286;-54
2022/07/16 10:04:44;;;;;;;2.08;1.60;;;;;;;29.23;31.44;99268.80;1865406;75;28260;-53
2022/07/16 10:07:33;;;;;;;1.70;1.60;;;;;;;29.29;31.40;99275.40;1858807;76;28106;-56
2022/07/16 10:10:22;;;;;;;1.87;1.77;;;;;;;29.32;31.39;99273.45;1858702;76;28193;-54
2022/07/16 10:13:12;;;;;;;1.82;1.72;;;;;;;29.51;31.13;99264.49;1857718;76;28303;-54
2022/07/16 10:16:00;;;;;;;1.65;1.62;;;;;;;29.47;31.05;99267.57;1858865;76;28243;-55
2022/07/16 10:18:49;;;;;;;1.60;1.50;;;;;;;29.38;31.38;99272.30;1858256;76;28229;-55
2022/07/16 10:21:37;;;;;;;2.17;1.70;;;;;;;29.36;31.38;99262.63;1863185;76;28223;-53
2022/07/16 10:24:29;;;;;;;1.92;1.82;;;;;;;29.35;31.31;99265.14;1862895;76;28977;-54
2022/07/16 10:27:20;;;;;;;1.80;1.70;;;;;;;29.33;31.34;99264.61;1852931;76;28697;-53
2022/07/16 10:30:14;;;;;;;1.75;1.65;;;;;;;29.31;31.70;99257.95;1852878;77;28199;-55
2022/07/16 10:33:13;;;;;;;1.90;1.80;;;;;;;29.53;31.68;99252.58;1837344;77;28255;-51
2022/07/16 10:36:08;;;;;;;1.70;1.60;;;;;;;29.50;31.75;99265.04;1832341;77;28396;-50
2022/07/16 10:39:06;;;;;;;1.67;1.60;;;;;;;29.51;31.78;99254.80;1887142;74;28101;-54
2022/07/16 10:41:58;;;;;;;1.90;1.70;;;;;;;29.46;31.95;99248.75;1873728;76;28791;-53
2022/07/16 10:44:49;;;;;;;2.02;1.92;;;;;;;29.51;31.91;99240.41;1871909;76;28149;-52
2022/07/16 10:47:46;;;;;;;1.80;1.70;;;;;;;29.52;31.83;99236.55;1896774;75;28164;-54
2022/07/16 10:50:34;;;;;;;1.90;1.80;;;;;;;29.57;31.82;99239.25;1898897;75;28174;-53
2022/07/16 10:53:23;;;;;;;1.98;1.87;;;;;;;29.56;31.88;99233.47;1888226;75;28156;-53
2022/07/16 10:56:37;;;;;;;1.80;1.70;;;;;;;29.59;31.65;99239.83;1872678;76;28270;-52
2022/07/16 10:59:34;;;;;;;1.65;1.62;;;;;;;29.59;31.69;99238.44;1869654;75;28273;-53
2022/07/16 11:02:23;;;;;;;2.00;1.90;;;;;;;29.65;31.80;99235.89;1898828;75;28122;-51
2022/07/16 11:05:12;;;;;;;2.08;1.98;;;;;;;29.65;31.77;99230.36;1879882;75;28532;-54
2022/07/16 11:08:12;;;;;;;1.80;1.70;;;;;;;29.72;31.57;99229.47;1898589;75;28228;-54
2022/07/16 11:11:00;;;;;;;2.08;1.60;;;;;;;29.76;31.57;99231.13;1898861;75;28270;-52
2022/07/16 11:13:50;;;;;;;1.60;1.60;;;;;;;29.86;31.45;99229.13;1893360;75;28181;-53
2022/07/16 11:16:50;;;;;;;1.80;1.70;;;;;;;29.84;31.46;99252.68;1892891;75;28214;-52
2022/07/16 11:19:42;;;;;;;2.27;1.72;;;;;;;29.85;31.39;99228.04;1893300;75;28541;-49
2022/07/16 11:22:32;;;;;;;1.70;1.60;;;;;;;29.78;31.44;99237.23;1891761;75;28113;-52
2022/07/16 11:25:20;;;;;;;1.77;1.70;;;;;;;29.77;31.33;99226.70;1880617;75;28157;-52
2022/07/16 11:28:08;;;;;;;1.75;1.65;;;;;;;29.79;31.30;99226.41;1894135;75;28191;-51
2022/07/16 11:31:06;;;;;;;1.70;1.60;;;;;;;29.83;31.25;99220.00;1894731;75;28171;-52
2022/07/16 11:33:58;;;;;;;1.67;1.57;;;;;;;29.86;31.06;99219.43;1898776;75;28249;-53
2022/07/16 11:36:50;;;;;;;1.70;1.60;;;;;;;29.87;31.19;99221.65;1895801;75;28173;-53
2022/07/16 11:39:38;;;;;;;2.50;1.90;;;;;;;29.92;31.07;99204.41;1916673;73;28104;-48
2022/07/16 11:42:27;;;;;;;1.80;1.70;;;;;;;29.98;30.91;99225.43;1896512;74;28166;-52
2022/07/16 11:45:16;;;;;;;1.90;1.70;;;;;;;30.15;30.64;99234.70;1913378;74;28091;-49
2022/07/16 11:48:17;;;;;;;1.90;1.80;;;;;;;30.20;30.50;99208.89;1907750;74;28525;-52
2022/07/16 11:51:09;;;;;;;1.80;1.70;;;;;;;30.34;30.43;99198.23;1913961;74;28040;-54
2022/07/16 11:53:58;;;;;;;1.80;1.70;;;;;;;30.42;30.33;99217.00;1894509;74;28222;-53
2022/07/16 11:56:46;;;;;;;1.83;1.73;;;;;;;30.43;30.17;99206.75;1894672;75;28212;-51
2022/07/16 11:59:35;;;;;;;1.47;1.47;;;;;;;30.54;30.20;99211.05;1895311;75;28107;-53
2022/07/16 12:02:28;;;;;;;1.80;1.70;;;;;;;30.62;29.98;99222.91;1896249;75;28182;-52
2022/07/16 12:05:20;;;;;;;1.60;1.50;;;;;;;30.63;29.93;99217.60;1912176;74;28121;-50
2022/07/16 12:08:09;;;;;;;2.00;1.90;;;;;;;30.63;29.88;99217.60;1902126;74;28211;-53
2022/07/16 12:11:07;;;;;;;1.80;1.70;;;;;;;30.66;29.78;99210.09;1895038;75;28142;-50
2022/07/16 12:13:56;;;;;;;1.82;1.70;;;;;;;30.64;29.92;99217.30;1892739;75;28269;-55
2022/07/16 12:16:47;;;;;;;1.80;1.70;;;;;;;30.72;29.80;99197.25;1904235;74;28153;-50
2022/07/16 12:19:36;;;;;;;1.75;1.65;;;;;;;30.80;29.86;99201.33;1894447;75;28177;-51
2022/07/16 12:22:44;;;;;;;1.57;1.57;;;;;;;30.85;29.75;99216.52;1908898;74;28189;-49
2022/07/16 12:25:36;;;;;;;1.75;1.65;;;;;;;30.83;29.69;99214.58;1906241;73;28197;-54
2022/07/16 12:28:25;;;;;;;1.72;1.70;;;;;;;30.76;29.60;99196.92;1894140;75;28076;-54
2022/07/16 12:31:13;;;;;;;1.60;1.50;;;;;;;30.88;29.66;99204.84;1908821;74;28506;-51
2022/07/16 12:34:04;;;;;;;1.75;1.65;;;;;;;30.88;29.62;99210.95;1906887;74;28128;-53
2022/07/16 12:36:53;;;;;;;2.35;2.25;;;;;;;30.93;29.51;99196.47;1904617;74;28200;-53
2022/07/16 12:39:41;;;;;;;1.80;1.70;;;;;;;30.94;29.57;99200.91;1905868;73;28039;-49
2022/07/16 12:42:30;;;;;;;1.50;1.40;;;;;;;31.02;29.43;99204.95;1906195;73;38520;-52
2022/07/16 12:45:18;;;;;;;1.80;1.70;;;;;;;31.05;29.54;99197.42;1903855;73;28108;-50
2022/07/16 12:48:07;;;;;;;1.40;1.40;;;;;;;31.14;29.45;99208.95;1917165;73;28036;-54
2022/07/16 12:50:55;;;;;;;1.47;1.47;;;;;;;31.13;29.39;99192.61;1908619;73;28098;-53
2022/07/16 12:53:44;;;;;;;1.80;1.60;;;;;;;31.17;29.30;99183.39;1904003;75;28158;-54
2022/07/16 12:59:39;;;;;;;1.98;1.77;;;;;;;31.22;29.31;99208.30;1904233;75;28080;-51
2022/07/16 13:02:27;;;;;;;1.70;1.60;;;;;;;31.31;29.32;99219.55;1902397;73;28185;-51
2022/07/16 13:05:15;;;;;;;1.60;1.50;;;;;;;31.29;29.14;99210.70;1903463;75;28113;-53
2022/07/16 13:08:05;;;;;;;1.50;1.50;;;;;;;31.31;29.18;99220.38;1904120;75;28185;-49
2022/07/16 13:10:53;;;;;;;1.70;1.60;;;;;;;31.36;29.11;99213.38;1918814;73;28225;-52
2022/07/16 13:13:42;;;;;;;1.85;1.52;;;;;;;31.44;29.08;99184.12;1904590;73;28039;-54
2022/07/16 13:16:31;;;;;;;1.60;1.50;;;;;;;31.37;28.98;99211.40;1907457;73;28221;-52
2022/07/16 13:19:19;;;;;;;1.50;1.47;;;;;;;31.36;28.90;99227.25;1914700;73;28196;-50
2022/07/16 13:22:09;;;;;;;1.70;1.60;;;;;;;31.44;28.88;99208.30;1901549;75;28152;-53